• Join FlightAware (Why Join?)
  • Login
  • US Flag 
06:28AM EDT


 

Airport Tracker/Info


-or-


 

Live Flight TrackerFlight Track Log ✈ N2886Q ✈ 15-Jun-2013 ✈ KMFD - KMGY

Flight Track Log - Related Links

Times and Time Zones

All times are in EDT time to prevent confusion due to time zone crossing. See the N2886Q flight status page for this flight to view local times or setup timezone preferences in your user account.

Time Position Orientation Groundspeed Altitude Reporting Facility
EDT Latitude Longitude Course Direction KTS MPH feet Rate Location/Type
02:27PM 40.8039 -82.5358 226° Southwest 51 59 2,200  Level Indianapolis Center
02:28PM 40.7878 -82.5569 225° Southwest 77 89 2,700 480 Climbing Indianapolis Center
02:29PM 40.7736 -82.5789 230° Southwest 78 90 3,200 540 Climbing Indianapolis Center
02:30PM 40.7611 -82.6022 235° Southwest 77 89 3,900 420 Climbing Indianapolis Center
02:31PM 40.7464 -82.6261 231° Southwest 83 96 4,100 60 Climbing Indianapolis Center
02:32PM 40.7292 -82.6544 231° Southwest 95 109 4,100  Level Indianapolis Center
02:33PM 40.7198 -82.6416 226° Southwest  Level FlightAware Approximate
02:33PM 40.7133 -82.6828 234° Southwest 95 109 4,100  Level Indianapolis Center
02:34PM 40.6942 -82.7058 222° Southwest 94 108 4,200 120 Climbing Indianapolis Center
02:35PM 40.6733 -82.7292 220° Southwest 96 110 4,400 -60 Climbing Indianapolis Center
02:37PM 40.6531 -82.7564 226° Southwest 101 116 4,100 -240 Descending Indianapolis Center
02:38PM 40.6331 -82.7889 231° Southwest 98 113 4,000  Descending Indianapolis Center
02:39PM 40.6167 -82.8164 232° Southwest 95 109 4,200  Climbing Indianapolis Center
02:40PM 40.5994 -82.8444 231° Southwest 98 113 4,100 -120 Descending Indianapolis Center
02:41PM 40.5794 -82.8664 220° Southwest 93 107 4,000  Descending Indianapolis Center
02:42PM 40.5589 -82.8894 220° Southwest 95 109 4,100  Climbing Indianapolis Center
02:43PM 40.5400 -82.9167 228° Southwest 98 113 4,100  Level Indianapolis Center
02:44PM 40.5217 -82.9408 225° Southwest 94 108 4,100  Level Indianapolis Center
02:45PM 40.5031 -82.9675 227° Southwest 96 110 4,100 -60 Level Indianapolis Center
02:46PM 40.4858 -82.9978 233° Southwest 96 110 4,000  Descending Indianapolis Center
02:47PM 40.4706 -83.0292 237° Southwest 99 114 4,100  Climbing Indianapolis Center
02:48PM 40.4531 -83.0558 229° Southwest 98 113 4,100  Level Indianapolis Center
02:49PM 40.4367 -83.0833 232° Southwest 97 112 4,200  Climbing Indianapolis Center
02:50PM 40.4125 -83.0994 207° Southwest 106 122 4,200  Level Indianapolis Center
02:50PM 40.4069 -83.1050 217° Southwest 99 114 4,200  Level Indianapolis Center
02:51PM 40.3903 -83.1189 212° Southwest 100 115 4,200  Level Indianapolis Center
02:51PM 40.3875 -83.1219 220° Southwest 99 114 4,200 -120 Level Indianapolis Center
02:52PM 40.3714 -83.1467 229° Southwest 95 109 4,100 -240 Descending Indianapolis Center
02:52PM 40.3661 -83.1511 213° Southwest 97 112 4,000 -120 Descending Indianapolis Center
02:53PM 40.3492 -83.1686 218° Southwest 92 106 4,000 60 Level Indianapolis Center
02:53PM 40.3461 -83.1717 217° Southwest 93 107 4,100  Climbing Indianapolis Center
02:54PM 40.3256 -83.1769 191° South 91 105 4,000 -120 Descending Indianapolis Center
02:54PM 40.3186 -83.1739 161° South 93 107 4,000 60 Level Indianapolis Center
02:55PM 40.3092 -83.2022 246° West 98 113 4,100 120 Climbing Indianapolis Center
02:56PM 40.2925 -83.2278 229° Southwest 95 109 4,200 60 Climbing Indianapolis Center
02:56PM 40.2822 -83.2444 231° Southwest 101 116 4,200 -120 Level Indianapolis Center
02:57PM 40.2739 -83.2556 225° Southwest 98 113 4,100 -240 Descending Indianapolis Center
02:57PM 40.2633 -83.2711 228° Southwest 98 113 4,000 -120 Descending Indianapolis Center
02:58PM 40.2553 -83.2833 229° Southwest 99 114 4,000  Level Indianapolis Center
02:58PM 40.2467 -83.2992 235° Southwest 98 113 4,000 60 Level Indianapolis Center
02:59PM 40.2367 -83.3083 215° Southwest 93 107 4,100 60 Climbing Indianapolis Center
02:59PM 40.2272 -83.3242 232° Southwest 97 112 4,100  Level Indianapolis Center
03:00PM 40.2203 -83.3339 227° Southwest 93 107 4,100  Level Indianapolis Center
03:00PM 40.2086 -83.3478 222° Southwest 95 109 4,100  Level Indianapolis Center
03:01PM 40.2017 -83.3589 231° Southwest 96 110 4,100 60 Level Indianapolis Center
03:01PM 40.1908 -83.3753 229° Southwest 96 110 4,200 60 Climbing Indianapolis Center
03:02PM 40.1850 -83.3869 237° Southwest 101 116 4,200  Level Indianapolis Center
03:02PM 40.1736 -83.4050 230° Southwest 99 114 4,200 -60 Level Indianapolis Center
03:03PM 40.1561 -83.4347 232° Southwest 101 116 4,100  Descending Indianapolis Center
03:05PM 40.1411 -83.4733 243° Southwest 102 117 4,200  Climbing Indianapolis Center
03:06PM 40.1253 -83.5025 235° Southwest 99 114 4,200 -120 Level Indianapolis Center
03:07PM 40.1092 -83.5344 237° Southwest 102 117 4,000 -60 Descending Indianapolis Center
03:08PM 40.0953 -83.5667 241° Southwest 102 117 4,100  Climbing Indianapolis Center
03:09PM 40.0772 -83.6056 239° Southwest 95 109 4,100  Level Indianapolis Center
03:10PM 40.0686 -83.6267 242° Southwest 96 110 4,200  Climbing Indianapolis Center
03:11PM 40.0578 -83.6594 247° West 96 110 4,100 -60 Descending Indianapolis Center
03:12PM 40.0414 -83.6939 238° Southwest 96 110 4,100  Level Indianapolis Center
03:13PM 40.0247 -83.7211 231° Southwest 95 109 4,100 -60 Level Indianapolis Center
03:14PM 40.0014 -83.7514 225° Southwest 97 112 4,000  Descending Indianapolis Center
03:15PM 39.9869 -83.7767 233° Southwest 96 110 4,200 60 Climbing Indianapolis Center
03:16PM 39.9678 -83.8069 230° Southwest 99 114 4,200 -120 Level Indianapolis Center
03:17PM 39.9539 -83.8303 232° Southwest 99 114 4,000 -300 Descending Indianapolis Center
03:18PM 39.9386 -83.8603 236° Southwest 99 114 3,600 -420 Descending Indianapolis Center
03:19PM 39.9228 -83.8967 240° Southwest 99 114 3,200 -240 Descending Indianapolis Center
03:20PM 39.9097 -83.9278 241° Southwest 98 113 3,200 -60 Level Indianapolis Center
03:21PM 39.8997 -83.9589 247° West 97 112 3,100 -120 Descending Indianapolis Center
03:22PM 39.8800 -83.9700 203° Southwest 85 98 3,000 -60 Descending Indianapolis Center
03:23PM 39.8514 -83.9678 177° South 94 108 3,000  Level Indianapolis Center
03:24PM 39.8308 -83.9825 209° Southwest 101 116 3,000  Level Indianapolis Center
03:25PM 39.8236 -84.0133 253° West 95 109 3,100  Climbing Indianapolis Center
03:26PM 39.8136 -84.0456 248° West 93 107 3,100  Level Indianapolis Center
03:27PM 39.8025 -84.0794 247° West 98 113 3,100  Level Indianapolis Center
03:28PM 39.7942 -84.1164 254° West 97 112 3,100 -60 Level Indianapolis Center
03:29PM 39.7761 -84.1386 223° Southwest 92 106 3,000 -120 Descending Indianapolis Center
03:30PM 39.7533 -84.1464 195° South 94 108 2,900 -60 Descending Indianapolis Center
03:31PM 39.7281 -84.1483 183° South 90 104 2,900  Level Indianapolis Center
03:32PM 39.7058 -84.1644 209° Southwest 90 104 2,900  Level Indianapolis Center
03:33PM 39.6825 -84.1772 203° Southwest 87 100 3,000 60 Climbing Indianapolis Center
03:35PM 39.6526 -84.1890 197° South  Level FlightAware Approximate
03:42PM 39.5833 -84.2167 197° South  Level FlightAware Approximate
03:43PM 39.5890 -84.2249 197° South  Level Estimated